sensor_id;sensor_type;location;lat;lon;timestamp;pressure;altitude;pressure_sealevel;temperature;humidity
7660;BME280;3872;47.902;8.162;2022-11-27T00:01:57;92924.84;;;0.42;100.00
7660;BME280;3872;47.902;8.162;2022-11-27T00:04:23;92914.53;;;0.35;100.00
7660;BME280;3872;47.902;8.162;2022-11-27T00:06:50;92914.06;;;0.45;100.00
7660;BME280;3872;47.902;8.162;2022-11-27T00:09:18;92912.41;;;0.57;100.00
7660;BME280;3872;47.902;8.162;2022-11-27T00:11:45;92914.66;;;0.47;100.00
7660;BME280;3872;47.902;8.162;2022-11-27T00:14:13;92903.63;;;0.58;100.00
7660;BME280;3872;47.902;8.162;2022-11-27T00:16:40;92898.88;;;0.55;100.00
7660;BME280;3872;47.902;8.162;2022-11-27T00:19:06;92896.53;;;0.47;100.00
7660;BME280;3872;47.902;8.162;2022-11-27T00:21:34;92894.81;;;0.34;100.00
7660;BME280;3872;47.902;8.162;2022-11-27T00:24:03;92899.41;;;0.25;100.00
7660;BME280;3872;47.902;8.162;2022-11-27T00:26:31;92898.59;;;0.31;100.00
7660;BME280;3872;47.902;8.162;2022-11-27T00:28:59;92892.84;;;0.23;100.00
7660;BME280;3872;47.902;8.162;2022-11-27T00:31:28;92885.56;;;0.07;100.00
7660;BME280;3872;47.902;8.162;2022-11-27T00:33:55;92880.28;;;0.33;100.00
7660;BME280;3872;47.902;8.162;2022-11-27T00:36:22;92885.09;;;0.23;100.00
7660;BME280;3872;47.902;8.162;2022-11-27T00:38:49;92876.47;;;0.35;100.00
7660;BME280;3872;47.902;8.162;2022-11-27T00:41:18;92877.75;;;0.20;100.00
7660;BME280;3872;47.902;8.162;2022-11-27T00:43:46;92872.81;;;0.12;100.00
7660;BME280;3872;47.902;8.162;2022-11-27T00:46:13;92863.94;;;0.32;100.00
7660;BME280;3872;47.902;8.162;2022-11-27T00:48:40;92862.34;;;0.31;100.00
7660;BME280;3872;47.902;8.162;2022-11-27T00:51:10;92862.50;;;0.36;100.00
7660;BME280;3872;47.902;8.162;2022-11-27T00:53:38;92862.19;;;0.26;100.00
7660;BME280;3872;47.902;8.162;2022-11-27T00:56:05;92852.34;;;0.42;100.00
7660;BME280;3872;47.902;8.162;2022-11-27T00:58:32;92849.91;;;0.47;100.00
7660;BME280;3872;47.902;8.162;2022-11-27T01:01:03;92857.94;;;0.38;100.00
7660;BME280;3872;47.902;8.162;2022-11-27T01:03:30;92859.06;;;0.11;100.00
7660;BME280;3872;47.902;8.162;2022-11-27T01:06:01;92855.25;;;0.20;100.00
7660;BME280;3872;47.902;8.162;2022-11-27T01:08:28;92853.41;;;0.27;100.00
7660;BME280;3872;47.902;8.162;2022-11-27T01:10:56;92852.72;;;0.07;100.00
7660;BME280;3872;47.902;8.162;2022-11-27T01:13:25;92854.44;;;0.20;100.00
7660;BME280;3872;47.902;8.162;2022-11-27T01:15:57;92855.28;;;0.14;100.00
7660;BME280;3872;47.902;8.162;2022-11-27T01:18:25;92855.47;;;0.12;100.00
7660;BME280;3872;47.902;8.162;2022-11-27T01:20:52;92849.13;;;0.08;100.00
7660;BME280;3872;47.902;8.162;2022-11-27T01:23:19;92842.91;;;0.16;100.00
7660;BME280;3872;47.902;8.162;2022-11-27T01:25:45;92830.44;;;0.06;100.00
7660;BME280;3872;47.902;8.162;2022-11-27T01:28:13;92832.44;;;0.04;100.00
7660;BME280;3872;47.902;8.162;2022-11-27T01:30:40;92827.81;;;0.13;100.00
7660;BME280;3872;47.902;8.162;2022-11-27T01:33:07;92823.03;;;0.10;100.00
7660;BME280;3872;47.902;8.162;2022-11-27T01:35:36;92818.53;;;-0.02;100.00
7660;BME280;3872;47.902;8.162;2022-11-27T01:38:02;92816.91;;;0.04;100.00
7660;BME280;3872;47.902;8.162;2022-11-27T01:40:29;92825.09;;;-0.06;100.00
7660;BME280;3872;47.902;8.162;2022-11-27T01:42:55;92828.31;;;-0.10;100.00
7660;BME280;3872;47.902;8.162;2022-11-27T01:45:22;92817.75;;;-0.09;100.00
7660;BME280;3872;47.902;8.162;2022-11-27T01:47:51;92827.88;;;-0.01;100.00
7660;BME280;3872;47.902;8.162;2022-11-27T01:50:20;92821.53;;;-0.11;100.00
7660;BME280;3872;47.902;8.162;2022-11-27T01:52:51;92821.38;;;-0.16;100.00
7660;BME280;3872;47.902;8.162;2022-11-27T01:55:24;92809.38;;;-0.04;100.00
7660;BME280;3872;47.902;8.162;2022-11-27T01:57:56;92807.38;;;-0.02;100.00
7660;BME280;3872;47.902;8.162;2022-11-27T02:00:24;92802.25;;;-0.09;100.00
7660;BME280;3872;47.902;8.162;2022-11-27T02:02:51;92800.25;;;-0.13;100.00
7660;BME280;3872;47.902;8.162;2022-11-27T02:05:20;92799.88;;;-0.17;100.00
7660;BME280;3872;47.902;8.162;2022-11-27T02:07:49;92802.44;;;-0.10;100.00
7660;BME280;3872;47.902;8.162;2022-11-27T02:10:17;92796.03;;;-0.01;100.00
7660;BME280;3872;47.902;8.162;2022-11-27T02:12:51;92788.47;;;-0.03;100.00
7660;BME280;3872;47.902;8.162;2022-11-27T02:15:25;92796.06;;;-0.08;100.00
7660;BME280;3872;47.902;8.162;2022-11-27T02:18:02;92795.69;;;-0.11;100.00
7660;BME280;3872;47.902;8.162;2022-11-27T02:20:39;92785.28;;;-0.05;100.00
7660;BME280;3872;47.902;8.162;2022-11-27T02:23:24;92791.25;;;-0.04;100.00
7660;BME280;3872;47.902;8.162;2022-11-27T02:28:55;92791.00;;;-0.34;100.00
7660;BME280;3872;47.902;8.162;2022-11-27T02:31:25;92784.19;;;-0.28;100.00
7660;BME280;3872;47.902;8.162;2022-11-27T02:34:01;92780.94;;;-0.55;100.00
7660;BME280;3872;47.902;8.162;2022-11-27T02:36:34;92770.63;;;-0.62;100.00
7660;BME280;3872;47.902;8.162;2022-11-27T02:39:07;92770.97;;;-0.45;100.00
7660;BME280;3872;47.902;8.162;2022-11-27T02:41:38;92771.56;;;-0.50;100.00
7660;BME280;3872;47.902;8.162;2022-11-27T02:44:08;92778.47;;;-0.30;100.00
7660;BME280;3872;47.902;8.162;2022-11-27T02:46:36;92768.19;;;-0.44;100.00
7660;BME280;3872;47.902;8.162;2022-11-27T02:49:07;92774.56;;;-0.53;100.00
7660;BME280;3872;47.902;8.162;2022-11-27T02:51:36;92771.97;;;-0.53;100.00
7660;BME280;3872;47.902;8.162;2022-11-27T02:54:07;92782.38;;;-0.66;100.00
7660;BME280;3872;47.902;8.162;2022-11-27T02:56:37;92782.97;;;-0.70;100.00
7660;BME280;3872;47.902;8.162;2022-11-27T02:59:10;92773.25;;;-0.82;100.00
7660;BME280;3872;47.902;8.162;2022-11-27T03:01:41;92766.34;;;-0.88;100.00
7660;BME280;3872;47.902;8.162;2022-11-27T03:04:13;92763.75;;;-0.88;100.00
7660;BME280;3872;47.902;8.162;2022-11-27T03:06:45;92758.59;;;-0.94;100.00
7660;BME280;3872;47.902;8.162;2022-11-27T03:09:16;92756.41;;;-0.97;100.00
7660;BME280;3872;47.902;8.162;2022-11-27T03:11:44;92757.44;;;-1.11;100.00
7660;BME280;3872;47.902;8.162;2022-11-27T03:14:13;92753.25;;;-1.12;100.00
7660;BME280;3872;47.902;8.162;2022-11-27T03:16:45;92753.06;;;-1.17;100.00
7660;BME280;3872;47.902;8.162;2022-11-27T03:19:16;92759.03;;;-1.24;100.00
7660;BME280;3872;47.902;8.162;2022-11-27T03:21:46;92759.06;;;-1.43;100.00
7660;BME280;3872;47.902;8.162;2022-11-27T03:24:13;92758.06;;;-1.36;100.00
7660;BME280;3872;47.902;8.162;2022-11-27T03:26:40;92754.28;;;-1.40;100.00
7660;BME280;3872;47.902;8.162;2022-11-27T03:29:10;92754.28;;;-1.46;100.00
7660;BME280;3872;47.902;8.162;2022-11-27T03:31:39;92754.25;;;-1.13;100.00
7660;BME280;3872;47.902;8.162;2022-11-27T03:34:06;92745.34;;;-1.31;100.00
7660;BME280;3872;47.902;8.162;2022-11-27T03:36:32;92748.94;;;-1.45;100.00
7660;BME280;3872;47.902;8.162;2022-11-27T03:38:59;92744.94;;;-1.41;100.00
7660;BME280;3872;47.902;8.162;2022-11-27T03:41:31;92751.53;;;-1.45;100.00
7660;BME280;3872;47.902;8.162;2022-11-27T03:44:07;92748.94;;;-1.45;100.00
7660;BME280;3872;47.902;8.162;2022-11-27T03:46:45;92747.53;;;-1.41;100.00
7660;BME280;3872;47.902;8.162;2022-11-27T03:49:23;92749.13;;;-1.46;100.00
7660;BME280;3872;47.902;8.162;2022-11-27T03:51:57;92747.34;;;-1.39;100.00
7660;BME280;3872;47.902;8.162;2022-11-27T03:54:36;92739.00;;;-1.48;100.00
7660;BME280;3872;47.902;8.162;2022-11-27T03:57:11;92734.41;;;-1.26;100.00
7660;BME280;3872;47.902;8.162;2022-11-27T03:59:42;92741.81;;;-1.49;100.00
7660;BME280;3872;47.902;8.162;2022-11-27T04:02:13;92736.22;;;-1.46;100.00
7660;BME280;3872;47.902;8.162;2022-11-27T04:04:42;92734.41;;;-1.33;100.00
7660;BME280;3872;47.902;8.162;2022-11-27T04:07:11;92727.69;;;-1.47;100.00
7660;BME280;3872;47.902;8.162;2022-11-27T04:09:41;92715.78;;;-1.74;100.00
7660;BME280;3872;47.902;8.162;2022-11-27T04:12:07;92713.00;;;-1.66;100.00
7660;BME280;3872;47.902;8.162;2022-11-27T04:14:34;92728.09;;;-1.63;100.00
7660;BME280;3872;47.902;8.162;2022-11-27T04:17:00;92722.53;;;-1.47;100.00
7660;BME280;3872;47.902;8.162;2022-11-27T04:19:28;92717.78;;;-1.43;100.00
7660;BME280;3872;47.902;8.162;2022-11-27T04:21:55;92718.16;;;-1.40;100.00
7660;BME280;3872;47.902;8.162;2022-11-27T04:24:21;92721.16;;;-1.49;100.00
7660;BME280;3872;47.902;8.162;2022-11-27T04:26:48;92724.50;;;-1.29;100.00
7660;BME280;3872;47.902;8.162;2022-11-27T04:29:15;92728.06;;;-1.30;100.00
7660;BME280;3872;47.902;8.162;2022-11-27T04:31:42;92725.28;;;-1.48;100.00
7660;BME280;3872;47.902;8.162;2022-11-27T04:34:08;92733.47;;;-1.51;100.00
7660;BME280;3872;47.902;8.162;2022-11-27T04:36:36;92730.47;;;-1.35;100.00
7660;BME280;3872;47.902;8.162;2022-11-27T04:39:03;92739.59;;;-1.39;100.00
7660;BME280;3872;47.902;8.162;2022-11-27T04:41:29;92736.00;;;-1.25;100.00
7660;BME280;3872;47.902;8.162;2022-11-27T04:43:56;92732.03;;;-1.28;100.00
7660;BME280;3872;47.902;8.162;2022-11-27T04:46:22;92727.28;;;-1.37;100.00
7660;BME280;3872;47.902;8.162;2022-11-27T04:48:49;92724.09;;;-1.33;100.00
7660;BME280;3872;47.902;8.162;2022-11-27T04:51:15;92722.72;;;-1.35;100.00
7660;BME280;3872;47.902;8.162;2022-11-27T04:53:43;92719.09;;;-1.28;100.00
7660;BME280;3872;47.902;8.162;2022-11-27T04:56:10;92719.53;;;-1.31;100.00
7660;BME280;3872;47.902;8.162;2022-11-27T04:58:36;92722.72;;;-1.55;100.00
7660;BME280;3872;47.902;8.162;2022-11-27T05:01:03;92715.78;;;-1.68;100.00
7660;BME280;3872;47.902;8.162;2022-11-27T05:03:29;92706.66;;;-1.70;100.00
7660;BME280;3872;47.902;8.162;2022-11-27T05:05:56;92710.63;;;-1.68;100.00
7660;BME280;3872;47.902;8.162;2022-11-27T05:08:23;92705.44;;;-1.54;100.00
7660;BME280;3872;47.902;8.162;2022-11-27T05:10:59;92710.00;;;-1.37;100.00
7660;BME280;3872;47.902;8.162;2022-11-27T05:13:25;92704.22;;;-1.32;100.00
7660;BME280;3872;47.902;8.162;2022-11-27T05:15:52;92707.81;;;-1.33;100.00
7660;BME280;3872;47.902;8.162;2022-11-27T05:18:18;92704.63;;;-1.42;100.00
7660;BME280;3872;47.902;8.162;2022-11-27T05:20:45;92703.66;;;-1.47;100.00
7660;BME280;3872;47.902;8.162;2022-11-27T05:23:12;92704.06;;;-1.50;100.00
7660;BME280;3872;47.902;8.162;2022-11-27T05:25:38;92702.47;;;-1.45;100.00
7660;BME280;3872;47.902;8.162;2022-11-27T05:28:06;92692.72;;;-1.36;100.00
7660;BME280;3872;47.902;8.162;2022-11-27T05:30:33;92682.19;;;-1.41;100.00
7660;BME280;3872;47.902;8.162;2022-11-27T05:32:59;92688.38;;;-1.36;100.00
7660;BME280;3872;47.902;8.162;2022-11-27T05:35:26;92686.09;;;-1.06;100.00
7660;BME280;3872;47.902;8.162;2022-11-27T05:37:52;92687.72;;;-1.25;100.00
7660;BME280;3872;47.902;8.162;2022-11-27T05:40:19;92682.19;;;-1.28;100.00
7660;BME280;3872;47.902;8.162;2022-11-27T05:42:45;92686.41;;;-1.53;100.00
7660;BME280;3872;47.902;8.162;2022-11-27T05:45:14;92684.75;;;-1.35;100.00
7660;BME280;3872;47.902;8.162;2022-11-27T05:47:40;92686.56;;;-1.29;100.00
7660;BME280;3872;47.902;8.162;2022-11-27T05:50:07;92698.66;;;-1.16;100.00
7660;BME280;3872;47.902;8.162;2022-11-27T05:52:34;92694.06;;;-1.07;100.00
7660;BME280;3872;47.902;8.162;2022-11-27T05:55:01;92696.22;;;-1.04;100.00
7660;BME280;3872;47.902;8.162;2022-11-27T05:57:27;92695.44;;;-1.11;100.00
7660;BME280;3872;47.902;8.162;2022-11-27T05:59:55;92691.09;;;-1.17;100.00
7660;BME280;3872;47.902;8.162;2022-11-27T06:02:23;92690.84;;;-1.03;100.00
7660;BME280;3872;47.902;8.162;2022-11-27T06:04:50;92692.41;;;-0.95;100.00
7660;BME280;3872;47.902;8.162;2022-11-27T06:07:16;92697.00;;;-0.97;100.00
7660;BME280;3872;47.902;8.162;2022-11-27T06:09:43;92691.09;;;-1.17;100.00
7660;BME280;3872;47.902;8.162;2022-11-27T06:12:10;92685.31;;;-1.20;100.00
7660;BME280;3872;47.902;8.162;2022-11-27T06:14:36;92686.94;;;-1.32;100.00
7660;BME280;3872;47.902;8.162;2022-11-27T06:17:03;92692.66;;;-1.10;100.00
7660;BME280;3872;47.902;8.162;2022-11-27T06:19:31;92688.91;;;-1.14;100.00
7660;BME280;3872;47.902;8.162;2022-11-27T06:21:58;92687.53;;;-1.16;100.00
7660;BME280;3872;47.902;8.162;2022-11-27T06:24:24;92683.94;;;-1.15;100.00
7660;BME280;3872;47.902;8.162;2022-11-27T06:26:51;92673.75;;;-1.04;100.00
7660;BME280;3872;47.902;8.162;2022-11-27T06:29:18;92669.25;;;-1.15;100.00
7660;BME280;3872;47.902;8.162;2022-11-27T06:31:44;92668.84;;;-1.19;100.00
7660;BME280;3872;47.902;8.162;2022-11-27T06:34:11;92661.47;;;-1.08;100.00
7660;BME280;3872;47.902;8.162;2022-11-27T06:36:39;92658.09;;;-1.09;100.00
7660;BME280;3872;47.902;8.162;2022-11-27T06:39:07;92656.44;;;-0.97;100.00
7660;BME280;3872;47.902;8.162;2022-11-27T06:41:35;92649.31;;;-1.01;100.00
7660;BME280;3872;47.902;8.162;2022-11-27T06:44:02;92659.06;;;-1.03;100.00
7660;BME280;3872;47.902;8.162;2022-11-27T06:46:29;92652.03;;;-0.83;100.00
7660;BME280;3872;47.902;8.162;2022-11-27T06:48:56;92659.44;;;-0.93;100.00
7660;BME280;3872;47.902;8.162;2022-11-27T06:51:24;92658.88;;;-1.02;100.00
7660;BME280;3872;47.902;8.162;2022-11-27T06:53:53;92656.25;;;-0.95;100.00
7660;BME280;3872;47.902;8.162;2022-11-27T06:56:21;92644.50;;;-0.91;100.00
7660;BME280;3872;47.902;8.162;2022-11-27T06:58:49;92643.34;;;-0.95;100.00
7660;BME280;3872;47.902;8.162;2022-11-27T07:01:17;92643.13;;;-0.94;100.00
7660;BME280;3872;47.902;8.162;2022-11-27T07:03:44;92642.41;;;-1.07;100.00
7660;BME280;3872;47.902;8.162;2022-11-27T07:06:12;92636.22;;;-1.00;100.00
7660;BME280;3872;47.902;8.162;2022-11-27T07:08:40;92632.97;;;-0.89;100.00
7660;BME280;3872;47.902;8.162;2022-11-27T07:11:11;92632.56;;;-0.92;100.00
7660;BME280;3872;47.902;8.162;2022-11-27T07:13:38;92629.69;;;-0.71;100.00
7660;BME280;3872;47.902;8.162;2022-11-27T07:16:07;92642.03;;;-0.73;100.00
7660;BME280;3872;47.902;8.162;2022-11-27T07:18:35;92646.53;;;-0.62;100.00
7660;BME280;3872;47.902;8.162;2022-11-27T07:21:02;92643.59;;;-0.65;100.00
7660;BME280;3872;47.902;8.162;2022-11-27T07:23:29;92634.97;;;-0.53;100.00
7660;BME280;3872;47.902;8.162;2022-11-27T07:25:55;92644.16;;;-0.63;100.00
7660;BME280;3872;47.902;8.162;2022-11-27T07:28:24;92631.19;;;-0.50;100.00
7660;BME280;3872;47.902;8.162;2022-11-27T07:30:54;92637.56;;;-0.97;100.00
7660;BME280;3872;47.902;8.162;2022-11-27T07:33:21;92624.13;;;-0.68;100.00
7660;BME280;3872;47.902;8.162;2022-11-27T07:35:47;92627.81;;;-0.51;100.00
7660;BME280;3872;47.902;8.162;2022-11-27T07:38:14;92617.69;;;-0.27;100.00
7660;BME280;3872;47.902;8.162;2022-11-27T07:40:40;92621.25;;;-0.53;100.00
7660;BME280;3872;47.902;8.162;2022-11-27T07:43:07;92614.84;;;-0.44;100.00
7660;BME280;3872;47.902;8.162;2022-11-27T07:45:35;92623.00;;;-0.47;100.00
7660;BME280;3872;47.902;8.162;2022-11-27T07:48:01;92628.88;;;-0.33;100.00
7660;BME280;3872;47.902;8.162;2022-11-27T07:50:28;92629.16;;;-0.17;100.00
7660;BME280;3872;47.902;8.162;2022-11-27T07:52:55;92630.53;;;-0.14;100.00
7660;BME280;3872;47.902;8.162;2022-11-27T07:55:21;92632.09;;;-0.13;100.00
7660;BME280;3872;47.902;8.162;2022-11-27T07:57:48;92631.78;;;0.02;100.00
7660;BME280;3872;47.902;8.162;2022-11-27T08:00:15;92637.63;;;-0.03;100.00
7660;BME280;3872;47.902;8.162;2022-11-27T08:02:43;92632.91;;;-0.13;100.00
7660;BME280;3872;47.902;8.162;2022-11-27T08:05:10;92637.09;;;0.13;100.00
7660;BME280;3872;47.902;8.162;2022-11-27T08:07:36;92635.03;;;-0.03;100.00
7660;BME280;3872;47.902;8.162;2022-11-27T08:10:03;92627.16;;;0.10;100.00
7660;BME280;3872;47.902;8.162;2022-11-27T08:12:30;92625.25;;;0.24;100.00
7660;BME280;3872;47.902;8.162;2022-11-27T08:14:57;92620.44;;;0.27;100.00
7660;BME280;3872;47.902;8.162;2022-11-27T08:17:23;92621.41;;;0.51;100.00
7660;BME280;3872;47.902;8.162;2022-11-27T08:19:51;92616.06;;;0.46;100.00
7660;BME280;3872;47.902;8.162;2022-11-27T08:22:18;92622.63;;;0.49;100.00
7660;BME280;3872;47.902;8.162;2022-11-27T08:24:45;92614.56;;;0.38;100.00
7660;BME280;3872;47.902;8.162;2022-11-27T08:27:13;92617.13;;;0.20;100.00
7660;BME280;3872;47.902;8.162;2022-11-27T08:29:40;92603.53;;;0.25;100.00
7660;BME280;3872;47.902;8.162;2022-11-27T08:32:06;92603.78;;;0.42;100.00
7660;BME280;3872;47.902;8.162;2022-11-27T08:34:33;92601.13;;;0.66;100.00
7660;BME280;3872;47.902;8.162;2022-11-27T08:37:02;92600.31;;;1.02;100.00
7660;BME280;3872;47.902;8.162;2022-11-27T08:39:29;92605.91;;;1.17;100.00
7660;BME280;3872;47.902;8.162;2022-11-27T08:41:55;92594.63;;;1.12;100.00
7660;BME280;3872;47.902;8.162;2022-11-27T08:44:22;92597.34;;;1.17;100.00
7660;BME280;3872;47.902;8.162;2022-11-27T08:46:48;92606.03;;;1.23;100.00
7660;BME280;3872;47.902;8.162;2022-11-27T08:49:16;92604.34;;;1.46;100.00
7660;BME280;3872;47.902;8.162;2022-11-27T08:51:43;92590.13;;;1.90;100.00
7660;BME280;3872;47.902;8.162;2022-11-27T08:54:11;92589.66;;;1.93;100.00
7660;BME280;3872;47.902;8.162;2022-11-27T08:56:37;92590.66;;;1.92;100.00
7660;BME280;3872;47.902;8.162;2022-11-27T08:59:04;92591.19;;;1.60;100.00
7660;BME280;3872;47.902;8.162;2022-11-27T09:01:31;92593.69;;;1.66;100.00
7660;BME280;3872;47.902;8.162;2022-11-27T09:03:57;92585.28;;;2.06;100.00
7660;BME280;3872;47.902;8.162;2022-11-27T09:06:26;92581.22;;;2.10;100.00
7660;BME280;3872;47.902;8.162;2022-11-27T09:08:55;92570.38;;;1.89;100.00
7660;BME280;3872;47.902;8.162;2022-11-27T09:11:23;92570.31;;;1.66;100.00
7660;BME280;3872;47.902;8.162;2022-11-27T09:13:50;92568.91;;;1.82;100.00
7660;BME280;3872;47.902;8.162;2022-11-27T09:16:18;92572.19;;;2.24;100.00
7660;BME280;3872;47.902;8.162;2022-11-27T09:18:46;92567.19;;;2.69;100.00
7660;BME280;3872;47.902;8.162;2022-11-27T09:21:14;92554.69;;;2.94;100.00
7660;BME280;3872;47.902;8.162;2022-11-27T09:23:41;92553.34;;;2.92;100.00
7660;BME280;3872;47.902;8.162;2022-11-27T09:26:09;92542.88;;;3.15;100.00
7660;BME280;3872;47.902;8.162;2022-11-27T09:28:38;92547.41;;;2.80;100.00
7660;BME280;3872;47.902;8.162;2022-11-27T09:31:07;92555.97;;;3.20;100.00
7660;BME280;3872;47.902;8.162;2022-11-27T09:33:36;92554.63;;;3.46;100.00
7660;BME280;3872;47.902;8.162;2022-11-27T09:36:04;92549.06;;;3.26;100.00
7660;BME280;3872;47.902;8.162;2022-11-27T09:38:31;92552.41;;;3.38;100.00
7660;BME280;3872;47.902;8.162;2022-11-27T09:41:02;92544.13;;;3.41;100.00
7660;BME280;3872;47.902;8.162;2022-11-27T09:43:35;92535.50;;;3.69;100.00
7660;BME280;3872;47.902;8.162;2022-11-27T09:46:13;92535.81;;;3.89;100.00
7660;BME280;3872;47.902;8.162;2022-11-27T09:48:48;92528.72;;;3.68;100.00
7660;BME280;3872;47.902;8.162;2022-11-27T09:51:22;92531.41;;;3.73;100.00
7660;BME280;3872;47.902;8.162;2022-11-27T09:53:55;92528.47;;;3.86;100.00
7660;BME280;3872;47.902;8.162;2022-11-27T09:56:24;92528.19;;;3.82;100.00
7660;BME280;3872;47.902;8.162;2022-11-27T09:58:55;92528.47;;;3.86;100.00
7660;BME280;3872;47.902;8.162;2022-11-27T10:01:31;92536.34;;;3.91;100.00
7660;BME280;3872;47.902;8.162;2022-11-27T10:03:59;92524.44;;;3.78;100.00
7660;BME280;3872;47.902;8.162;2022-11-27T10:06:29;92526.19;;;3.89;100.00
7660;BME280;3872;47.902;8.162;2022-11-27T10:09:05;92531.56;;;3.83;100.00
7660;BME280;3872;47.902;8.162;2022-11-27T10:11:46;92537.16;;;4.08;100.00
7660;BME280;3872;47.902;8.162;2022-11-27T10:14:31;92529.03;;;3.88;100.00
7660;BME280;3872;47.902;8.162;2022-11-27T10:17:06;92522.31;;;3.92;100.00
7660;BME280;3872;47.902;8.162;2022-11-27T10:19:43;92519.00;;;3.80;100.00
7660;BME280;3872;47.902;8.162;2022-11-27T10:22:14;92501.03;;;3.95;100.00
7660;BME280;3872;47.902;8.162;2022-11-27T10:24:46;92498.59;;;3.88;100.00
7660;BME280;3872;47.902;8.162;2022-11-27T10:27:24;92491.53;;;4.22;100.00
7660;BME280;3872;47.902;8.162;2022-11-27T10:29:54;92482.97;;;4.27;100.00
7660;BME280;3872;47.902;8.162;2022-11-27T10:32:24;92488.47;;;4.47;100.00
7660;BME280;3872;47.902;8.162;2022-11-27T10:34:55;92486.63;;;4.48;100.00
7660;BME280;3872;47.902;8.162;2022-11-27T10:37:28;92486.94;;;4.51;100.00
7660;BME280;3872;47.902;8.162;2022-11-27T10:40:00;92484.50;;;4.23;100.00
7660;BME280;3872;47.902;8.162;2022-11-27T10:42:33;92470.16;;;4.42;100.00
7660;BME280;3872;47.902;8.162;2022-11-27T10:45:03;92470.91;;;4.59;100.00
7660;BME280;3872;47.902;8.162;2022-11-27T10:47:33;92468.25;;;4.54;100.00
7660;BME280;3872;47.902;8.162;2022-11-27T10:49:59;92459.63;;;4.76;100.00
7660;BME280;3872;47.902;8.162;2022-11-27T10:52:27;92460.81;;;4.24;100.00
7660;BME280;3872;47.902;8.162;2022-11-27T10:54:57;92464.56;;;4.55;100.00
7660;BME280;3872;47.902;8.162;2022-11-27T10:58:00;92467.31;;;4.87;100.00
7660;BME280;3872;47.902;8.162;2022-11-27T11:00:29;92448.94;;;4.77;100.00
7660;BME280;3872;47.902;8.162;2022-11-27T11:03:00;92434.88;;;4.78;100.00
7660;BME280;3872;47.902;8.162;2022-11-27T11:05:28;92419.47;;;4.77;100.00
7660;BME280;3872;47.902;8.162;2022-11-27T11:07:58;92407.16;;;4.72;100.00
7660;BME280;3872;47.902;8.162;2022-11-27T11:10:29;92415.06;;;4.55;100.00
7660;BME280;3872;47.902;8.162;2022-11-27T11:13:14;92423.56;;;4.94;100.00
7660;BME280;3872;47.902;8.162;2022-11-27T11:15:52;92442.09;;;3.89;100.00
7660;BME280;3872;47.902;8.162;2022-11-27T11:18:22;92450.75;;;4.77;100.00
7660;BME280;3872;47.902;8.162;2022-11-27T11:20:51;92442.09;;;4.98;100.00
7660;BME280;3872;47.902;8.162;2022-11-27T11:23:22;92428.81;;;5.26;100.00
7660;BME280;3872;47.902;8.162;2022-11-27T11:25:50;92433.22;;;5.21;100.00
7660;BME280;3872;47.902;8.162;2022-11-27T11:28:19;92419.31;;;5.42;100.00
7660;BME280;3872;47.902;8.162;2022-11-27T11:30:53;92409.09;;;5.40;100.00
7660;BME280;3872;47.902;8.162;2022-11-27T11:33:23;92408.06;;;5.73;100.00
7660;BME280;3872;47.902;8.162;2022-11-27T11:35:52;92410.06;;;6.45;100.00
7660;BME280;3872;47.902;8.162;2022-11-27T11:38:25;92402.38;;;6.91;100.00
7660;BME280;3872;47.902;8.162;2022-11-27T11:41:01;92393.50;;;7.07;100.00
7660;BME280;3872;47.902;8.162;2022-11-27T11:43:30;92392.25;;;7.50;100.00
7660;BME280;3872;47.902;8.162;2022-11-27T11:46:06;92393.03;;;7.81;100.00
7660;BME280;3872;47.902;8.162;2022-11-27T11:48:52;92392.41;;;8.19;100.00
7660;BME280;3872;47.902;8.162;2022-11-27T11:51:23;92389.28;;;8.17;100.00
7660;BME280;3872;47.902;8.162;2022-11-27T11:53:59;92386.91;;;8.36;100.00
7660;BME280;3872;47.902;8.162;2022-11-27T11:56:32;92386.22;;;7.65;100.00
7660;BME280;3872;47.902;8.162;2022-11-27T11:59:00;92391.94;;;8.02;100.00
7660;BME280;3872;47.902;8.162;2022-11-27T12:01:43;92387.44;;;8.18;100.00
7660;BME280;3872;47.902;8.162;2022-11-27T12:07:20;92382.22;;;8.23;100.00
7660;BME280;3872;47.902;8.162;2022-11-27T12:09:54;92376.50;;;7.96;100.00
7660;BME280;3872;47.902;8.162;2022-11-27T12:12:28;92363.38;;;7.91;100.00
7660;BME280;3872;47.902;8.162;2022-11-27T12:15:05;92358.94;;;7.91;100.00
7660;BME280;3872;47.902;8.162;2022-11-27T12:17:54;92359.38;;;8.29;100.00
7660;BME280;3872;47.902;8.162;2022-11-27T12:20:30;92357.88;;;7.97;100.00
7660;BME280;3872;47.902;8.162;2022-11-27T12:23:23;92354.50;;;7.86;100.00
7660;BME280;3872;47.902;8.162;2022-11-27T12:26:03;92363.44;;;7.40;100.00
7660;BME280;3872;47.902;8.162;2022-11-27T12:31:40;92340.63;;;7.61;100.00
7660;BME280;3872;47.902;8.162;2022-11-27T12:34:20;92338.31;;;7.24;100.00
7660;BME280;3872;47.902;8.162;2022-11-27T12:37:06;92322.03;;;7.62;100.00
7660;BME280;3872;47.902;8.162;2022-11-27T12:39:42;92334.63;;;7.25;100.00
7660;BME280;3872;47.902;8.162;2022-11-27T12:42:18;92323.91;;;7.26;100.00
7660;BME280;3872;47.902;8.162;2022-11-27T12:44:54;92318.41;;;7.13;100.00
7660;BME280;3872;47.902;8.162;2022-11-27T12:47:26;92327.84;;;7.29;100.00
7660;BME280;3872;47.902;8.162;2022-11-27T12:50:01;92327.81;;;7.39;100.00
7660;BME280;3872;47.902;8.162;2022-11-27T12:52:32;92330.97;;;7.41;100.00
7660;BME280;3872;47.902;8.162;2022-11-27T12:55:04;92332.03;;;7.35;100.00
7660;BME280;3872;47.902;8.162;2022-11-27T12:57:39;92323.38;;;7.50;100.00
7660;BME280;3872;47.902;8.162;2022-11-27T13:00:13;92319.16;;;7.74;100.00
7660;BME280;3872;47.902;8.162;2022-11-27T13:02:44;92314.22;;;7.52;100.00
7660;BME280;3872;47.902;8.162;2022-11-27T13:05:16;92304.53;;;7.27;100.00
7660;BME280;3872;47.902;8.162;2022-11-27T13:07:50;92295.13;;;7.36;100.00
7660;BME280;3872;47.902;8.162;2022-11-27T13:10:23;92291.44;;;7.32;100.00
7660;BME280;3872;47.902;8.162;2022-11-27T13:13:00;92291.38;;;7.68;100.00
7660;BME280;3872;47.902;8.162;2022-11-27T13:15:31;92305.06;;;7.34;100.00
7660;BME280;3872;47.902;8.162;2022-11-27T13:18:08;92289.09;;;7.26;100.00
7660;BME280;3872;47.902;8.162;2022-11-27T13:20:39;92295.13;;;7.06;100.00
7660;BME280;3872;47.902;8.162;2022-11-27T13:23:09;92282.28;;;7.35;100.00
7660;BME280;3872;47.902;8.162;2022-11-27T13:25:42;92271.56;;;7.21;100.00
7660;BME280;3872;47.902;8.162;2022-11-27T13:28:20;92274.44;;;6.94;100.00
7660;BME280;3872;47.902;8.162;2022-11-27T13:30:50;92264.22;;;6.98;100.00
7660;BME280;3872;47.902;8.162;2022-11-27T13:33:28;92246.19;;;6.91;100.00
7660;BME280;3872;47.902;8.162;2022-11-27T13:35:59;92252.47;;;6.80;100.00
7660;BME280;3872;47.902;8.162;2022-11-27T13:38:29;92248.53;;;6.93;100.00
7660;BME280;3872;47.902;8.162;2022-11-27T13:40:58;92254.81;;;6.72;100.00